createdAt,value
2022-08-16T00:01:51.481Z,97528.60
2022-08-16T00:06:56.097Z,97529.59
2022-08-16T00:12:00.386Z,97536.28
2022-08-16T00:17:16.218Z,97533.36
2022-08-16T00:22:25.110Z,97526.30
2022-08-16T00:27:30.816Z,97524.94
2022-08-16T00:32:35.588Z,97531.45
2022-08-16T00:37:56.777Z,97530.41
2022-08-16T00:43:04.491Z,97530.12
2022-08-16T00:48:28.681Z,97523.54
2022-08-16T00:53:33.968Z,97526.91
2022-08-16T00:58:39.427Z,97529.45
2022-08-16T01:03:49.334Z,97531.29
2022-08-16T01:08:54.926Z,97526.80
2022-08-16T01:14:01.277Z,97530.21
2022-08-16T01:19:11.359Z,97538.25
2022-08-16T01:24:52.726Z,97539.77
2022-08-16T01:29:59.323Z,97543.03
2022-08-16T01:35:06.626Z,97541.39
2022-08-16T01:40:12.048Z,97540.77
2022-08-16T01:45:19.683Z,97545.97
2022-08-16T01:50:43.209Z,97545.40
2022-08-16T01:55:54.228Z,97541.95
2022-08-16T02:00:58.167Z,97551.45
2022-08-16T02:06:02.346Z,97550.70
2022-08-16T02:11:13.287Z,97543.63
2022-08-16T02:16:18.770Z,97545.88
2022-08-16T02:21:31.233Z,97542.61
2022-08-16T02:26:36.846Z,97546.74
2022-08-16T02:32:03.186Z,97544.55
2022-08-16T02:37:05.785Z,97555.13
2022-08-16T02:42:10.706Z,97562.03
2022-08-16T02:47:25.481Z,97565.77
2022-08-16T02:52:30.064Z,97562.45
2022-08-16T02:57:36.876Z,97561.52
2022-08-16T03:02:46.533Z,97556.14
2022-08-16T03:08:00.095Z,97550.39
2022-08-16T03:13:04.549Z,97550.47
2022-08-16T03:18:18.648Z,97553.69
2022-08-16T03:23:38.626Z,97547.98
2022-08-16T03:28:43.526Z,97549.62
2022-08-16T03:33:47.869Z,97557.74
2022-08-16T03:38:56.595Z,97562.27
2022-08-16T03:44:00.739Z,97557.12
2022-08-16T03:49:05.280Z,97550.92
2022-08-16T03:54:12.444Z,97553.71
2022-08-16T03:59:17.478Z,97556.40
2022-08-16T04:04:33.313Z,97558.41
2022-08-16T04:09:38.451Z,97563.06
2022-08-16T04:14:46.416Z,97564.92
2022-08-16T04:19:54.968Z,97567.66
2022-08-16T04:25:03.316Z,97570.30
2022-08-16T04:30:10.964Z,97576.95
2022-08-16T04:35:17.486Z,97581.09
2022-08-16T04:40:25.183Z,97580.89
2022-08-16T04:45:35.934Z,97581.13
2022-08-16T04:50:43.490Z,97576.05
2022-08-16T04:55:53.306Z,97585.22
2022-08-16T05:00:58.268Z,97587.40
2022-08-16T05:06:05.242Z,97591.56
2022-08-16T05:11:14.388Z,97596.07
2022-08-16T05:16:22.978Z,97595.48
2022-08-16T05:21:28.247Z,97602.89
2022-08-16T05:26:43.442Z,97603.96
2022-08-16T05:31:56.047Z,97609.28
2022-08-16T05:37:00.069Z,97615.84
2022-08-16T05:42:04.909Z,97620.80
2022-08-16T05:47:09.867Z,97631.83
2022-08-16T05:52:20.809Z,97633.89
2022-08-16T05:57:25.099Z,97641.34
2022-08-16T06:02:33.405Z,97642.26
2022-08-16T06:07:38.388Z,97645.86
2022-08-16T06:12:42.638Z,97649.64
2022-08-16T06:17:47.858Z,97651.79
2022-08-16T06:22:58.595Z,97649.77
2022-08-16T06:28:10.318Z,97652.48
2022-08-16T06:33:22.659Z,97652.92
2022-08-16T06:38:33.572Z,97658.52
2022-08-16T06:43:38.808Z,97653.52
2022-08-16T06:48:47.205Z,97647.41
2022-08-16T06:53:55.676Z,97648.98
2022-08-16T06:58:59.909Z,97653.84
2022-08-16T07:04:10.479Z,97656.55
2022-08-16T07:09:16.767Z,97655.95
2022-08-16T07:14:25.362Z,97656.00
2022-08-16T07:20:03.648Z,97667.02
2022-08-16T07:24:57.110Z,97667.23
2022-08-16T07:30:01.198Z,97660.02
2022-08-16T07:35:06.280Z,97653.02
2022-08-16T07:40:13.643Z,97653.44
2022-08-16T07:45:17.691Z,97654.14
2022-08-16T07:50:55.837Z,97656.83
2022-08-16T07:55:48.039Z,97655.41
2022-08-16T08:00:53.066Z,97655.78
2022-08-16T08:05:57.646Z,97657.54
2022-08-16T08:11:09.283Z,97657.45
2022-08-16T08:16:18.316Z,97655.11
2022-08-16T08:21:26.313Z,97661.45
2022-08-16T08:26:32.138Z,97660.20
2022-08-16T08:31:36.887Z,97662.60
2022-08-16T08:36:41.125Z,97666.52
2022-08-16T08:41:49.481Z,97665.54
2022-08-16T08:47:00.199Z,97663.67
2022-08-16T08:52:08.087Z,97665.36
2022-08-16T08:57:13.647Z,97670.20
2022-08-16T09:02:19.500Z,97671.06
2022-08-16T09:07:24.027Z,97672.26
2022-08-16T09:12:36.178Z,97666.50
2022-08-16T09:17:52.369Z,97662.94
2022-08-16T09:22:59.968Z,97667.42
2022-08-16T09:28:08.981Z,97669.52
2022-08-16T09:33:18.047Z,97665.10
2022-08-16T09:38:32.318Z,97660.00
2022-08-16T09:44:00.017Z,97663.73
2022-08-16T09:49:03.607Z,97654.10
2022-08-16T09:54:10.478Z,97653.59
2022-08-16T09:59:21.166Z,97649.92
2022-08-16T10:04:30.370Z,97653.98
2022-08-16T10:09:54.344Z,97667.59
2022-08-16T10:15:00.673Z,97669.23
2022-08-16T10:20:06.988Z,97669.41
2022-08-16T10:27:16.614Z,97676.04
2022-08-16T10:30:40.112Z,97676.80
2022-08-16T10:35:46.628Z,97677.72
2022-08-16T10:40:51.146Z,97682.21
2022-08-16T10:45:59.926Z,97674.73
2022-08-16T10:51:05.707Z,97666.29
2022-08-16T10:56:52.894Z,97664.29
2022-08-16T11:01:43.627Z,97669.95
2022-08-16T11:07:06.549Z,97676.04
2022-08-16T11:12:13.758Z,97672.69
2022-08-16T11:17:19.188Z,97690.56
2022-08-16T11:22:41.862Z,97686.22
2022-08-16T11:27:49.125Z,97677.46
2022-08-16T11:32:53.845Z,97669.95
2022-08-16T11:38:47.195Z,97659.19
2022-08-16T11:43:26.389Z,97654.23
2022-08-16T11:48:33.076Z,97662.83
2022-08-16T11:53:37.366Z,97682.86
2022-08-16T11:58:41.516Z,97686.41
2022-08-16T12:03:45.712Z,97681.83
2022-08-16T12:08:50.512Z,97684.17
2022-08-16T12:13:54.756Z,97689.46
2022-08-16T12:18:59.107Z,97693.02
2022-08-16T12:24:05.496Z,97692.05
2022-08-16T12:29:09.996Z,97685.23
2022-08-16T12:34:19.700Z,97672.19
2022-08-16T12:39:33.055Z,97683.00
2022-08-16T12:44:37.267Z,97691.02
2022-08-16T12:49:43.827Z,97686.74
2022-08-16T12:54:54.981Z,97685.08
2022-08-16T12:59:59.692Z,97677.64
2022-08-16T13:05:04.308Z,97669.38
2022-08-16T13:10:20.775Z,97666.75
2022-08-16T13:15:26.327Z,97669.95
2022-08-16T13:20:32.187Z,97673.08
2022-08-16T13:25:37.108Z,97670.65
2022-08-16T13:30:42.559Z,97670.02
2022-08-16T13:35:55.696Z,97666.20
2022-08-16T13:41:02.016Z,97661.17
2022-08-16T13:46:07.017Z,97666.36
2022-08-16T13:51:17.042Z,97674.58
2022-08-16T13:56:24.967Z,97678.95
2022-08-16T14:01:29.726Z,97675.40
2022-08-16T14:06:34.758Z,97666.98
2022-08-16T14:11:39.086Z,97663.86
2022-08-16T14:16:43.216Z,97659.59
2022-08-16T14:21:58.992Z,97651.95
2022-08-16T14:27:13.027Z,97651.89
2022-08-16T14:32:33.359Z,97649.77
2022-08-16T14:37:43.097Z,97653.88
2022-08-16T14:42:47.836Z,97664.05
2022-08-16T14:47:52.486Z,97665.13
2022-08-16T14:52:57.638Z,97667.23
2022-08-16T14:58:02.576Z,97669.66
2022-08-16T15:03:09.661Z,97668.50
2022-08-16T15:08:14.267Z,97673.89
2022-08-16T15:13:21.475Z,97676.79
2022-08-16T15:18:28.032Z,97672.84
2022-08-16T15:23:36.045Z,97663.76
2022-08-16T15:28:41.145Z,97654.48
2022-08-16T15:33:50.725Z,97658.77
2022-08-16T15:39:07.100Z,97665.60
2022-08-16T15:44:25.537Z,97675.63
2022-08-16T15:49:37.072Z,97685.86
2022-08-16T15:54:53.441Z,97690.19
2022-08-16T16:00:09.911Z,97693.77
2022-08-16T16:05:19.866Z,97702.47
2022-08-16T16:10:29.365Z,97702.82
2022-08-16T16:15:35.056Z,97696.88
2022-08-16T16:20:42.096Z,97693.37
2022-08-16T16:25:48.176Z,97699.57
2022-08-16T16:30:56.929Z,97703.64
2022-08-16T16:36:03.194Z,97707.36
2022-08-16T16:41:10.077Z,97705.07
2022-08-16T16:46:40.154Z,97697.54
2022-08-16T16:51:40.671Z,97694.39
2022-08-16T16:56:45.939Z,97704.98
2022-08-16T17:02:00.350Z,97710.48
2022-08-16T17:07:20.703Z,97716.92
2022-08-16T17:12:46.573Z,97711.74
2022-08-16T17:17:59.811Z,97715.13
2022-08-16T17:23:05.645Z,97726.27
2022-08-16T17:28:58.754Z,97724.39
2022-08-16T17:33:36.861Z,97726.90
2022-08-16T17:38:44.650Z,97733.96
2022-08-16T17:43:50.297Z,97740.43
2022-08-16T17:48:54.668Z,97745.77
2022-08-16T17:54:03.227Z,97747.61
2022-08-16T17:59:07.966Z,97748.48
2022-08-16T18:04:12.206Z,97743.94
2022-08-16T18:09:36.722Z,97750.17
2022-08-16T18:14:50.374Z,97741.54
2022-08-16T18:19:55.766Z,97738.89
2022-08-16T18:25:00.066Z,97744.61
2022-08-16T18:30:04.287Z,97760.55
2022-08-16T18:35:09.326Z,97767.05
2022-08-16T18:40:14.447Z,97763.64
2022-08-16T18:45:19.209Z,97758.20
2022-08-16T18:50:24.046Z,97765.33
2022-08-16T18:55:28.906Z,97767.41
2022-08-16T19:00:55.806Z,97766.35
2022-08-16T19:06:02.676Z,97763.55
2022-08-16T19:11:08.186Z,97764.20
2022-08-16T19:16:13.170Z,97771.35
2022-08-16T19:21:17.436Z,97772.35
2022-08-16T19:26:25.607Z,97775.91
2022-08-16T19:31:31.507Z,97779.02
2022-08-16T19:36:37.507Z,97781.27
2022-08-16T19:41:42.549Z,97781.21
2022-08-16T19:46:48.377Z,97785.86
2022-08-16T19:51:52.246Z,97792.64
2022-08-16T19:56:56.437Z,97801.07
2022-08-16T20:02:00.674Z,97807.05
2022-08-16T20:07:04.936Z,97810.55
2022-08-16T20:12:11.417Z,97811.41
2022-08-16T20:17:15.487Z,97819.27
2022-08-16T20:22:49.604Z,97823.39
2022-08-16T20:27:48.747Z,97830.09
2022-08-16T20:32:52.999Z,97827.34
2022-08-16T20:37:57.267Z,97828.09
2022-08-16T20:43:02.567Z,97831.83
2022-08-16T20:48:06.920Z,97841.52
2022-08-16T20:53:11.236Z,97837.60
2022-08-16T20:58:15.748Z,97841.53
2022-08-16T21:03:20.179Z,97845.24
2022-08-16T21:08:50.775Z,97847.96
2022-08-16T21:13:48.728Z,97848.92
2022-08-16T21:18:52.460Z,97857.33
2022-08-16T21:23:57.216Z,97854.09
2022-08-16T21:29:01.457Z,97850.66
2022-08-16T21:34:05.568Z,97851.79
2022-08-16T21:39:10.037Z,97854.38
2022-08-16T21:44:13.799Z,97850.14
2022-08-16T21:49:18.337Z,97851.27
2022-08-16T21:54:22.918Z,97857.43
2022-08-16T21:59:27.108Z,97854.66
2022-08-16T22:04:37.174Z,97855.44
2022-08-16T22:09:43.251Z,97861.54
2022-08-16T22:14:47.587Z,97862.70
2022-08-16T22:19:51.970Z,97860.33
2022-08-16T22:24:56.287Z,97858.67
2022-08-16T22:30:00.750Z,97860.05
2022-08-16T22:35:12.297Z,97854.15
2022-08-16T22:40:20.620Z,97851.67
2022-08-16T22:45:24.828Z,97850.80
2022-08-16T22:50:29.310Z,97844.64
2022-08-16T22:55:35.457Z,97840.05
2022-08-16T23:00:39.597Z,97832.77
2022-08-16T23:05:44.700Z,97831.00
2022-08-16T23:10:54.014Z,97830.39
2022-08-16T23:15:59.287Z,97834.43
2022-08-16T23:21:07.548Z,97823.43
2022-08-16T23:26:44.975Z,97816.17
2022-08-16T23:31:38.437Z,97809.68
2022-08-16T23:36:42.797Z,97812.34
2022-08-16T23:41:46.807Z,97810.95
2022-08-16T23:46:50.969Z,97805.16
2022-08-16T23:51:55.667Z,97798.13
2022-08-16T23:57:00.086Z,97809.22
